Time;durP1;ratioP1;P1;durP2;ratioP2;P2;SDS_P1;SDS_P2;PMS_P1;PMS_P2;Temp;Humidity;BMP_temperature;BMP_pressure;BME280_temperature;BME280_humidity;BME280_pressure;Samples;Min_cycle;Max_cycle;Signal;HPM_P1;HPM_P2
2022/07/09 00:00:05;;;;;;;2.90;0.90;;;;;;;;;;5017568;28;20059;-76
2022/07/09 00:02:31;;;;;;;1.92;0.80;;;;;;;;;;5017944;28;20084;-76
2022/07/09 00:04:57;;;;;;;2.25;1.00;;;;;;;;;;5017588;28;20053;-76
2022/07/09 00:07:24;;;;;;;1.30;0.77;;;;;;;;;;5017646;28;20041;-76
2022/07/09 00:09:51;;;;;;;1.05;0.80;;;;;;;;;;5016710;28;20053;-76
2022/07/09 00:12:17;;;;;;;3.67;0.90;;;;;;;;;;5017275;28;20044;-76
2022/07/09 00:14:43;;;;;;;1.42;0.90;;;;;;;;;;5017062;28;20124;-76
2022/07/09 00:17:10;;;;;;;1.77;0.90;;;;;;;;;;5017876;28;20076;-76
2022/07/09 00:19:36;;;;;;;4.57;0.88;;;;;;;;;;5016884;28;20445;-76
2022/07/09 00:22:03;;;;;;;6.15;1.00;;;;;;;;;;5017093;28;20056;-76
2022/07/09 00:24:29;;;;;;;1.00;0.88;;;;;;;;;;5017080;28;20060;-76
2022/07/09 00:26:55;;;;;;;2.03;0.70;;;;;;;;;;5017329;28;20096;-76
2022/07/09 00:29:21;;;;;;;3.20;0.90;;;;;;;;;;5017191;28;20049;-76
2022/07/09 00:31:47;;;;;;;4.32;0.90;;;;;;;;;;5017199;28;20073;-76
2022/07/09 00:34:13;;;;;;;2.42;1.00;;;;;;;;;;5016860;28;20164;-76
2022/07/09 00:36:39;;;;;;;1.13;1.00;;;;;;;;;;5017040;28;20416;-76
2022/07/09 00:39:05;;;;;;;1.58;0.80;;;;;;;;;;5017307;28;20045;-76
2022/07/09 00:41:32;;;;;;;4.10;0.90;;;;;;;;;;5016669;28;20487;-76
2022/07/09 00:43:58;;;;;;;3.88;1.08;;;;;;;;;;5016382;28;20041;-76
2022/07/09 00:46:24;;;;;;;1.85;0.88;;;;;;;;;;5017165;28;20172;-76
2022/07/09 00:48:50;;;;;;;1.92;1.00;;;;;;;;;;5016903;28;20184;-76
2022/07/09 00:51:18;;;;;;;2.42;0.88;;;;;;;;;;5017074;28;20125;-76
2022/07/09 00:53:45;;;;;;;2.60;1.08;;;;;;;;;;5016752;28;20519;-76
2022/07/09 00:56:12;;;;;;;1.13;0.82;;;;;;;;;;5016676;28;20050;-76
2022/07/09 00:58:38;;;;;;;2.55;0.85;;;;;;;;;;5016508;28;20058;-76
2022/07/09 01:01:05;;;;;;;1.75;1.02;;;;;;;;;;5016286;28;20042;-76
2022/07/09 01:03:31;;;;;;;5.53;1.02;;;;;;;;;;5016599;28;20563;-76
2022/07/09 01:05:57;;;;;;;1.05;0.95;;;;;;;;;;5016312;28;20092;-76
2022/07/09 01:08:23;;;;;;;1.63;0.82;;;;;;;;;;5016620;28;20053;-76
2022/07/09 01:10:50;;;;;;;1.35;0.80;;;;;;;;;;5016116;28;20087;-76
2022/07/09 01:13:16;;;;;;;2.55;1.00;;;;;;;;;;5016279;28;20042;-76
2022/07/09 01:15:42;;;;;;;1.40;0.80;;;;;;;;;;5016087;28;20496;-76
2022/07/09 01:18:12;;;;;;;4.32;0.98;;;;;;;;;;5015929;28;20505;-76
2022/07/09 01:20:38;;;;;;;1.25;0.80;;;;;;;;;;5015678;28;20065;-76
2022/07/09 01:23:04;;;;;;;2.47;0.80;;;;;;;;;;5015943;28;20053;-76
2022/07/09 01:25:41;;;;;;;1.20;1.05;;;;;;;;;;5015668;28;20475;-76
2022/07/09 01:28:09;;;;;;;1.95;0.85;;;;;;;;;;5015853;28;20133;-76
2022/07/09 01:30:36;;;;;;;2.92;1.05;;;;;;;;;;5016043;28;20061;-76
2022/07/09 01:33:02;;;;;;;2.00;1.02;;;;;;;;;;5016191;28;20053;-76
2022/07/09 01:35:28;;;;;;;3.65;0.95;;;;;;;;;;5015698;28;20128;-76
2022/07/09 01:37:54;;;;;;;1.08;0.80;;;;;;;;;;5015882;28;20042;-76
2022/07/09 01:40:21;;;;;;;3.45;0.73;;;;;;;;;;5015340;28;20096;-76
2022/07/09 01:42:47;;;;;;;2.42;0.95;;;;;;;;;;5015115;28;20120;-76
2022/07/09 01:45:14;;;;;;;3.75;1.10;;;;;;;;;;5015185;28;20049;-76
2022/07/09 01:47:40;;;;;;;2.80;1.10;;;;;;;;;;5015496;28;20500;-76
2022/07/09 01:50:07;;;;;;;3.20;1.10;;;;;;;;;;5015466;28;20077;-76
2022/07/09 01:52:34;;;;;;;1.10;1.00;;;;;;;;;;5015440;28;20046;-76
2022/07/09 01:55:00;;;;;;;1.17;0.90;;;;;;;;;;5015333;28;20080;-76
2022/07/09 01:57:26;;;;;;;3.83;1.13;;;;;;;;;;5015510;28;20116;-76
2022/07/09 01:59:52;;;;;;;1.40;1.02;;;;;;;;;;5015544;28;20053;-76
2022/07/09 02:02:19;;;;;;;1.58;1.08;;;;;;;;;;5015559;28;20472;-76
2022/07/09 02:04:45;;;;;;;1.10;1.00;;;;;;;;;;5015150;28;20045;-76
2022/07/09 02:07:12;;;;;;;1.63;1.00;;;;;;;;;;5015453;28;20041;-76
2022/07/09 02:09:38;;;;;;;1.77;1.00;;;;;;;;;;5015575;28;20056;-76
2022/07/09 02:12:05;;;;;;;2.70;1.20;;;;;;;;;;5015310;28;20042;-76
2022/07/09 02:14:31;;;;;;;1.83;1.00;;;;;;;;;;5015193;28;20069;-76
2022/07/09 02:16:57;;;;;;;2.92;1.20;;;;;;;;;;5015627;28;20038;-76
2022/07/09 02:19:23;;;;;;;2.28;1.25;;;;;;;;;;5015438;28;20108;-76
2022/07/09 02:21:50;;;;;;;1.75;1.17;;;;;;;;;;5015496;28;20052;-76
2022/07/09 02:24:16;;;;;;;2.90;1.10;;;;;;;;;;5015299;28;20472;-76
2022/07/09 02:26:42;;;;;;;2.05;1.10;;;;;;;;;;5015193;28;20046;-76
2022/07/09 02:29:08;;;;;;;2.10;1.00;;;;;;;;;;5015198;28;20042;-76
2022/07/09 02:31:34;;;;;;;2.50;1.25;;;;;;;;;;5015033;28;20041;-76
2022/07/09 02:34:00;;;;;;;1.17;1.00;;;;;;;;;;5015070;28;20527;-76
2022/07/09 02:36:27;;;;;;;3.70;1.02;;;;;;;;;;5015076;28;20172;-76
2022/07/09 02:38:53;;;;;;;2.45;1.08;;;;;;;;;;5015369;28;20046;-76
2022/07/09 02:41:19;;;;;;;1.85;1.20;;;;;;;;;;5014427;28;20546;-76
2022/07/09 02:43:45;;;;;;;1.80;1.23;;;;;;;;;;5014390;28;20508;-76
2022/07/09 02:46:11;;;;;;;1.15;0.95;;;;;;;;;;5014340;28;20053;-76
2022/07/09 02:48:38;;;;;;;3.25;1.15;;;;;;;;;;5014565;28;20087;-76
2022/07/09 02:51:04;;;;;;;1.50;1.20;;;;;;;;;;5014957;28;20045;-76
2022/07/09 02:53:30;;;;;;;2.97;1.30;;;;;;;;;;5014635;28;20089;-76
2022/07/09 02:55:56;;;;;;;4.20;1.20;;;;;;;;;;5014376;28;20045;-76
2022/07/09 02:58:22;;;;;;;2.90;1.05;;;;;;;;;;5013895;28;20062;-76
2022/07/09 03:00:48;;;;;;;1.38;1.23;;;;;;;;;;5015229;28;20080;-76
2022/07/09 03:03:15;;;;;;;1.58;1.00;;;;;;;;;;5014858;28;20044;-76
2022/07/09 03:05:41;;;;;;;1.33;0.93;;;;;;;;;;5014452;28;20042;-76
2022/07/09 03:08:08;;;;;;;1.55;1.10;;;;;;;;;;5015299;28;20046;-76
2022/07/09 03:10:34;;;;;;;4.28;1.20;;;;;;;;;;5014760;28;20088;-76
2022/07/09 03:13:01;;;;;;;3.55;0.95;;;;;;;;;;5014313;28;20053;-76
2022/07/09 03:15:27;;;;;;;2.53;1.20;;;;;;;;;;5014445;28;20087;-76
2022/07/09 03:17:53;;;;;;;2.95;1.30;;;;;;;;;;5014692;28;20433;-76
2022/07/09 03:20:19;;;;;;;4.72;1.20;;;;;;;;;;5014940;28;20053;-76
2022/07/09 03:22:45;;;;;;;1.83;1.20;;;;;;;;;;5014369;28;20437;-76
2022/07/09 03:25:11;;;;;;;3.42;1.10;;;;;;;;;;5014278;28;20042;-76
2022/07/09 03:27:37;;;;;;;4.57;1.17;;;;;;;;;;5015042;28;20049;-76
2022/07/09 03:30:04;;;;;;;2.97;1.08;;;;;;;;;;5015146;28;20096;-76
2022/07/09 03:32:30;;;;;;;2.65;1.02;;;;;;;;;;5014552;28;20088;-76
2022/07/09 03:34:56;;;;;;;3.88;0.90;;;;;;;;;;5014558;28;20045;-76
2022/07/09 03:37:23;;;;;;;4.88;1.23;;;;;;;;;;5015043;28;20045;-76
2022/07/09 03:39:49;;;;;;;1.85;1.27;;;;;;;;;;5014498;28;20042;-76
2022/07/09 03:42:15;;;;;;;1.42;1.10;;;;;;;;;;5014470;28;20045;-76
2022/07/09 03:44:41;;;;;;;1.17;1.08;;;;;;;;;;5016487;28;20049;-76
2022/07/09 03:47:07;;;;;;;4.55;1.70;;;;;;;;;;5018284;28;20127;-76
2022/07/09 03:49:34;;;;;;;3.03;1.20;;;;;;;;;;5018058;28;20046;-76
2022/07/09 03:52:00;;;;;;;3.30;1.50;;;;;;;;;;5018466;28;20473;-76
2022/07/09 03:54:26;;;;;;;1.88;1.00;;;;;;;;;;5017572;28;20049;-76
2022/07/09 03:56:52;;;;;;;5.10;1.30;;;;;;;;;;5017904;28;20085;-76
2022/07/09 03:59:18;;;;;;;1.85;1.35;;;;;;;;;;5017625;28;20080;-76
2022/07/09 04:01:45;;;;;;;1.73;1.30;;;;;;;;;;5017522;28;20500;-76
2022/07/09 04:04:11;;;;;;;1.60;1.10;;;;;;;;;;5017060;28;20046;-76
2022/07/09 04:06:37;;;;;;;2.67;1.40;;;;;;;;;;5017128;28;20046;-76
2022/07/09 04:09:06;;;;;;;2.45;1.23;;;;;;;;;;5017591;28;20088;-76
2022/07/09 04:11:33;;;;;;;1.45;1.13;;;;;;;;;;5017257;28;20045;-76
2022/07/09 04:14:02;;;;;;;1.52;1.20;;;;;;;;;;5017076;28;20095;-76
2022/07/09 04:16:29;;;;;;;3.17;1.50;;;;;;;;;;5017750;28;20048;-76
2022/07/09 04:18:55;;;;;;;2.60;1.40;;;;;;;;;;5017017;28;20046;-76
2022/07/09 04:21:21;;;;;;;2.35;1.20;;;;;;;;;;5016837;28;20130;-76
2022/07/09 04:23:48;;;;;;;6.47;1.50;;;;;;;;;;5016794;28;20046;-76
2022/07/09 04:26:14;;;;;;;3.25;1.40;;;;;;;;;;5017480;28;20155;-76
2022/07/09 04:28:40;;;;;;;1.85;1.13;;;;;;;;;;5016710;28;20050;-76
2022/07/09 04:31:07;;;;;;;1.88;1.17;;;;;;;;;;5017420;28;20038;-76
2022/07/09 04:33:33;;;;;;;1.50;1.40;;;;;;;;;;5016884;28;20045;-76
2022/07/09 04:35:59;;;;;;;5.22;1.33;;;;;;;;;;5016816;28;20563;-76
2022/07/09 04:38:25;;;;;;;1.70;1.38;;;;;;;;;;5017143;28;20046;-76
2022/07/09 04:40:52;;;;;;;3.65;1.23;;;;;;;;;;5016724;28;20515;-76
2022/07/09 04:43:18;;;;;;;3.25;1.45;;;;;;;;;;5016527;28;20041;-76
2022/07/09 04:45:44;;;;;;;3.10;1.35;;;;;;;;;;5016556;28;20046;-76
2022/07/09 04:48:10;;;;;;;4.53;1.55;;;;;;;;;;5016981;28;20050;-76
2022/07/09 04:50:36;;;;;;;2.20;0.98;;;;;;;;;;5016535;28;20049;-76
2022/07/09 04:53:02;;;;;;;3.72;1.40;;;;;;;;;;5016800;28;20045;-76
2022/07/09 04:55:29;;;;;;;3.53;1.25;;;;;;;;;;5016145;28;20049;-76
2022/07/09 04:57:55;;;;;;;2.03;1.30;;;;;;;;;;5016561;28;20042;-76
2022/07/09 05:00:21;;;;;;;1.92;1.25;;;;;;;;;;5016927;28;20056;-76
2022/07/09 05:02:47;;;;;;;3.35;1.40;;;;;;;;;;5016847;28;20104;-76
2022/07/09 05:05:13;;;;;;;3.95;1.20;;;;;;;;;;5016502;28;20042;-76
2022/07/09 05:07:41;;;;;;;1.67;1.33;;;;;;;;;;5016838;28;20060;-76
2022/07/09 05:10:07;;;;;;;1.33;1.23;;;;;;;;;;5016444;28;20092;-76
2022/07/09 05:12:33;;;;;;;2.88;1.55;;;;;;;;;;5016270;28;20041;-76
2022/07/09 05:14:59;;;;;;;1.55;1.45;;;;;;;;;;5016355;28;20132;-76
2022/07/09 05:17:26;;;;;;;3.00;1.35;;;;;;;;;;5016658;28;20045;-76
2022/07/09 05:19:52;;;;;;;3.45;1.40;;;;;;;;;;5016003;28;20069;-76
2022/07/09 05:22:18;;;;;;;4.72;1.60;;;;;;;;;;5016241;28;20469;-76
2022/07/09 05:24:44;;;;;;;3.30;1.23;;;;;;;;;;5015840;28;20496;-76
2022/07/09 05:27:10;;;;;;;3.28;1.48;;;;;;;;;;5015839;28;20409;-76
2022/07/09 05:29:37;;;;;;;4.38;1.30;;;;;;;;;;5016080;28;20046;-76
2022/07/09 05:32:03;;;;;;;2.97;1.20;;;;;;;;;;5016091;28;20045;-76
2022/07/09 05:34:29;;;;;;;2.47;1.20;;;;;;;;;;5016023;28;20056;-76
2022/07/09 05:36:56;;;;;;;4.82;1.25;;;;;;;;;;5015722;28;20066;-76
2022/07/09 05:39:22;;;;;;;2.20;1.25;;;;;;;;;;5016147;28;20113;-76
2022/07/09 05:41:48;;;;;;;2.55;1.30;;;;;;;;;;5016199;28;20068;-76
2022/07/09 05:44:15;;;;;;;2.22;0.98;;;;;;;;;;5015598;28;20472;-76
2022/07/09 05:46:41;;;;;;;4.97;1.20;;;;;;;;;;5015723;28;20038;-76
2022/07/09 05:49:07;;;;;;;1.15;0.90;;;;;;;;;;5016059;28;20557;-76
2022/07/09 05:51:34;;;;;;;2.17;1.10;;;;;;;;;;5015442;28;20044;-76
2022/07/09 05:54:00;;;;;;;2.72;1.17;;;;;;;;;;5015826;28;20088;-76
2022/07/09 05:56:26;;;;;;;3.58;1.17;;;;;;;;;;5015399;28;20369;-76
2022/07/09 05:58:52;;;;;;;0.88;0.88;;;;;;;;;;5015636;28;20058;-76
2022/07/09 06:01:18;;;;;;;2.00;0.85;;;;;;;;;;5015637;28;20056;-76
2022/07/09 06:03:46;;;;;;;1.98;1.10;;;;;;;;;;5015296;28;20049;-76
2022/07/09 06:06:13;;;;;;;2.47;1.10;;;;;;;;;;5014515;28;20042;-76
2022/07/09 06:08:39;;;;;;;1.17;0.85;;;;;;;;;;5015674;28;20547;-76
2022/07/09 06:11:06;;;;;;;3.40;1.17;;;;;;;;;;5015448;28;20124;-76
2022/07/09 06:13:32;;;;;;;1.60;1.05;;;;;;;;;;5015234;28;20053;-76
2022/07/09 06:15:58;;;;;;;3.80;1.00;;;;;;;;;;5015636;28;20100;-76
2022/07/09 06:18:24;;;;;;;2.00;0.80;;;;;;;;;;5015688;28;20115;-76
2022/07/09 06:20:50;;;;;;;1.98;0.88;;;;;;;;;;5015296;28;20480;-76
2022/07/09 06:23:17;;;;;;;2.78;1.02;;;;;;;;;;5014974;28;20033;-76
2022/07/09 06:25:43;;;;;;;1.05;0.80;;;;;;;;;;5014987;28;20523;-76
2022/07/09 06:28:10;;;;;;;1.63;0.93;;;;;;;;;;5014121;28;20058;-76
2022/07/09 06:30:36;;;;;;;3.03;1.05;;;;;;;;;;5015392;28;20121;-76
2022/07/09 06:33:03;;;;;;;4.90;1.10;;;;;;;;;;5014811;28;20489;-76
2022/07/09 06:35:30;;;;;;;3.30;1.00;;;;;;;;;;5014504;28;20405;-76
2022/07/09 06:37:57;;;;;;;1.75;1.15;;;;;;;;;;5015295;28;20049;-76
2022/07/09 06:40:23;;;;;;;1.45;1.00;;;;;;;;;;5014475;28;20065;-76
2022/07/09 06:42:49;;;;;;;2.67;1.10;;;;;;;;;;5014529;28;20440;-76
2022/07/09 06:45:15;;;;;;;2.63;1.20;;;;;;;;;;5014836;28;20046;-76
2022/07/09 06:47:41;;;;;;;1.90;1.20;;;;;;;;;;5015257;28;20488;-76
2022/07/09 06:50:07;;;;;;;2.38;0.93;;;;;;;;;;5014399;28;20042;-76
2022/07/09 06:52:33;;;;;;;1.33;0.80;;;;;;;;;;5014652;28;20045;-76
2022/07/09 06:55:00;;;;;;;1.17;0.85;;;;;;;;;;5014635;28;20526;-76
2022/07/09 06:57:26;;;;;;;1.73;1.00;;;;;;;;;;5015910;28;20121;-77
2022/07/09 06:59:52;;;;;;;2.00;0.90;;;;;;;;;;5027235;28;20049;-76
2022/07/09 07:02:18;;;;;;;1.95;1.10;;;;;;;;;;5047912;28;20151;-76
2022/07/09 07:04:45;;;;;;;3.05;1.33;;;;;;;;;;5014451;28;20428;-76
2022/07/09 07:07:11;;;;;;;1.92;1.05;;;;;;;;;;5023214;28;20049;-76
2022/07/09 07:09:37;;;;;;;2.50;1.10;;;;;;;;;;5042169;28;20065;-76
2022/07/09 07:12:04;;;;;;;2.17;0.82;;;;;;;;;;5039805;28;20037;-76
2022/07/09 07:14:31;;;;;;;2.58;1.10;;;;;;;;;;5052848;28;20091;-76
2022/07/09 07:16:57;;;;;;;3.40;1.20;;;;;;;;;;5040457;28;20124;-76
2022/07/09 07:19:23;;;;;;;1.63;0.90;;;;;;;;;;5036463;28;20113;-77
2022/07/09 07:21:50;;;;;;;2.60;1.30;;;;;;;;;;5035670;28;20103;-76
2022/07/09 07:24:16;;;;;;;1.33;1.08;;;;;;;;;;5057516;28;20519;-77
2022/07/09 07:26:42;;;;;;;3.40;0.85;;;;;;;;;;5039275;28;20484;-78
2022/07/09 07:29:08;;;;;;;1.20;0.95;;;;;;;;;;5022165;28;20053;-78
2022/07/09 07:31:34;;;;;;;2.40;1.20;;;;;;;;;;5018949;28;20041;-78
2022/07/09 07:34:01;;;;;;;1.63;1.10;;;;;;;;;;5026812;28;20045;-78
2022/07/09 07:36:27;;;;;;;6.93;0.93;;;;;;;;;;5027037;28;20043;-79
2022/07/09 07:38:54;;;;;;;2.40;1.00;;;;;;;;;;5020301;28;20045;-79
2022/07/09 07:41:20;;;;;;;1.65;1.00;;;;;;;;;;5029661;28;20137;-80
2022/07/09 07:43:47;;;;;;;2.17;1.10;;;;;;;;;;5037008;28;20068;-81
2022/07/09 07:46:13;;;;;;;4.40;1.52;;;;;;;;;;5022293;28;20052;-80
2022/07/09 07:48:43;;;;;;;2.22;1.08;;;;;;;;;;5037242;28;20049;-80
2022/07/09 07:51:09;;;;;;;4.53;1.20;;;;;;;;;;5038622;28;20045;-80
2022/07/09 07:53:35;;;;;;;4.47;1.23;;;;;;;;;;5036699;28;20034;-79
2022/07/09 07:56:02;;;;;;;2.05;1.10;;;;;;;;;;5019595;28;20054;-79
2022/07/09 07:58:28;;;;;;;2.10;1.00;;;;;;;;;;5037108;28;20061;-79
2022/07/09 08:00:54;;;;;;;3.47;1.25;;;;;;;;;;5043409;28;20076;-75
2022/07/09 08:03:21;;;;;;;3.30;1.13;;;;;;;;;;5030298;28;20041;-78
2022/07/09 08:05:47;;;;;;;2.60;1.00;;;;;;;;;;5036268;28;20045;-79
2022/07/09 08:08:13;;;;;;;4.07;0.82;;;;;;;;;;5035880;28;20393;-76
2022/07/09 08:10:39;;;;;;;1.40;0.93;;;;;;;;;;5034344;28;20044;-78
2022/07/09 08:13:06;;;;;;;1.90;0.95;;;;;;;;;;5036098;28;20056;-79
2022/07/09 08:15:32;;;;;;;9.35;4.43;;;;;;;;;;5036670;28;20103;-77
2022/07/09 08:17:58;;;;;;;4.35;1.85;;;;;;;;;;5018773;28;20048;-76
2022/07/09 08:20:24;;;;;;;3.95;2.28;;;;;;;;;;5035203;28;20045;-77
2022/07/09 08:22:50;;;;;;;4.43;2.63;;;;;;;;;;5039440;28;20067;-77
2022/07/09 08:25:16;;;;;;;5.25;2.13;;;;;;;;;;5048672;28;20041;-77
2022/07/09 08:27:43;;;;;;;4.82;1.50;;;;;;;;;;5039452;28;20041;-77
2022/07/09 08:30:09;;;;;;;2.58;1.42;;;;;;;;;;5040225;28;20384;-77
2022/07/09 08:32:38;;;;;;;5.15;2.38;;;;;;;;;;5019198;28;20088;-78
2022/07/09 08:35:04;;;;;;;3.88;1.73;;;;;;;;;;5026168;28;21621;-74
2022/07/09 08:37:31;;;;;;;1.25;0.88;;;;;;;;;;5024764;28;20037;-74
2022/07/09 08:39:57;;;;;;;3.90;1.20;;;;;;;;;;5023739;28;20034;-74
2022/07/09 08:42:23;;;;;;;2.88;1.00;;;;;;;;;;5016648;28;20097;-74
2022/07/09 08:44:49;;;;;;;3.88;1.00;;;;;;;;;;5016089;28;20067;-75
2022/07/09 08:47:16;;;;;;;1.98;1.00;;;;;;;;;;5033455;28;20128;-76
2022/07/09 08:49:43;;;;;;;1.75;1.05;;;;;;;;;;5044536;28;20029;-74
2022/07/09 08:52:10;;;;;;;4.82;1.08;;;;;;;;;;5029975;28;20404;-75
2022/07/09 08:54:40;;;;;;;4.63;1.15;;;;;;;;;;5032000;28;20041;-77
2022/07/09 08:57:07;;;;;;;1.80;1.02;;;;;;;;;;5032479;28;20048;-76
2022/07/09 08:59:33;;;;;;;1.70;0.90;;;;;;;;;;5035995;28;20408;-77
2022/07/09 09:02:04;;;;;;;1.70;1.00;;;;;;;;;;5029034;28;20037;-73
2022/07/09 09:04:30;;;;;;;4.65;1.00;;;;;;;;;;5031783;28;20041;-74
2022/07/09 09:06:56;;;;;;;1.17;0.80;;;;;;;;;;5042094;28;20103;-78
2022/07/09 09:09:23;;;;;;;11.57;1.60;;;;;;;;;;5035568;28;20092;-77
2022/07/09 09:11:50;;;;;;;2.10;0.90;;;;;;;;;;5035664;28;20033;-76
2022/07/09 09:14:22;;;;;;;1.48;0.93;;;;;;;;;;5026205;28;20044;-77
2022/07/09 09:16:49;;;;;;;2.13;0.98;;;;;;;;;;5021934;28;20062;-77
2022/07/09 09:19:15;;;;;;;3.05;1.08;;;;;;;;;;5016288;28;20515;-78
2022/07/09 09:21:42;;;;;;;2.33;0.95;;;;;;;;;;5015956;28;20041;-77
2022/07/09 09:24:08;;;;;;;3.35;0.93;;;;;;;;;;5045883;28;20037;-77
2022/07/09 09:26:35;;;;;;;2.97;1.30;;;;;;;;;;5055595;28;20049;-76
2022/07/09 09:29:02;;;;;;;2.15;1.05;;;;;;;;;;5045976;28;20124;-75
2022/07/09 09:31:33;;;;;;;1.83;0.93;;;;;;;;;;5035715;28;20041;-76
2022/07/09 09:34:05;;;;;;;1.88;1.00;;;;;;;;;;5023951;28;20065;-80
2022/07/09 09:36:38;;;;;;;3.13;1.20;;;;;;;;;;5031702;28;20040;-74
2022/07/09 09:39:08;;;;;;;5.15;1.08;;;;;;;;;;5055399;28;20041;-76
2022/07/09 09:41:34;;;;;;;3.60;1.20;;;;;;;;;;5054487;28;20032;-75
2022/07/09 09:44:03;;;;;;;1.33;1.08;;;;;;;;;;5055291;28;20041;-75
2022/07/09 09:46:30;;;;;;;3.30;1.13;;;;;;;;;;5055734;28;20131;-75
2022/07/09 09:48:57;;;;;;;2.97;1.20;;;;;;;;;;5054850;28;20044;-75
2022/07/09 09:51:23;;;;;;;5.40;1.30;;;;;;;;;;5055087;28;20037;-75
2022/07/09 09:53:51;;;;;;;4.35;1.40;;;;;;;;;;5051638;28;20043;-71
2022/07/09 09:56:17;;;;;;;2.22;0.95;;;;;;;;;;5037224;28;20037;-76
2022/07/09 09:58:44;;;;;;;2.65;1.15;;;;;;;;;;5035331;28;20522;-75
2022/07/09 10:01:10;;;;;;;3.92;1.20;;;;;;;;;;5028173;28;20496;-75
2022/07/09 10:03:37;;;;;;;3.08;1.20;;;;;;;;;;5023651;28;20048;-75
2022/07/09 10:06:03;;;;;;;1.80;1.08;;;;;;;;;;5034164;28;20045;-75
2022/07/09 10:08:29;;;;;;;3.42;1.25;;;;;;;;;;5030650;28;20056;-76
2022/07/09 10:10:55;;;;;;;2.00;1.20;;;;;;;;;;5029872;28;20045;-75
2022/07/09 10:13:22;;;;;;;3.95;1.20;;;;;;;;;;5029035;28;20033;-75
2022/07/09 10:15:51;;;;;;;4.15;1.58;;;;;;;;;;5034217;28;20566;-75
2022/07/09 10:18:18;;;;;;;2.55;1.50;;;;;;;;;;5026753;28;20115;-76
2022/07/09 10:20:44;;;;;;;3.50;1.30;;;;;;;;;;5027723;28;20510;-75
2022/07/09 10:23:23;;;;;;;2.83;1.20;;;;;;;;;;5034415;28;20041;-75
2022/07/09 10:25:55;;;;;;;3.70;1.23;;;;;;;;;;5034503;28;20211;-76
2022/07/09 10:28:24;;;;;;;4.13;1.70;;;;;;;;;;5026129;28;20069;-76
2022/07/09 10:30:53;;;;;;;1.92;1.20;;;;;;;;;;5019201;28;20512;-75
2022/07/09 10:33:24;;;;;;;4.63;1.50;;;;;;;;;;5022724;28;20057;-75
2022/07/09 10:35:51;;;;;;;1.98;1.30;;;;;;;;;;5025799;28;20049;-75
2022/07/09 10:38:17;;;;;;;3.25;1.30;;;;;;;;;;5023975;28;20046;-75
2022/07/09 10:40:48;;;;;;;3.95;1.13;;;;;;;;;;5023439;28;20049;-75
2022/07/09 10:43:15;;;;;;;5.55;1.48;;;;;;;;;;5024651;28;20037;-75
2022/07/09 10:45:42;;;;;;;3.22;1.30;;;;;;;;;;5022736;28;20050;-75
2022/07/09 10:48:09;;;;;;;5.43;1.60;;;;;;;;;;5023491;28;20045;-75
2022/07/09 10:50:46;;;;;;;6.28;1.25;;;;;;;;;;5015417;28;20519;-75
2022/07/09 10:53:13;;;;;;;4.60;1.38;;;;;;;;;;5037159;28;20373;-75
2022/07/09 10:55:43;;;;;;;2.72;1.20;;;;;;;;;;5029259;28;20107;-75
2022/07/09 10:58:09;;;;;;;;;;;;;;;;;;5018633;28;20107;-76
2022/07/09 11:00:35;;;;;;;3.33;1.20;;;;;;;;;;5028177;28;20367;-75
2022/07/09 11:03:03;;;;;;;3.10;1.30;;;;;;;;;;5018472;28;20061;-75
2022/07/09 11:05:30;;;;;;;3.78;1.40;;;;;;;;;;5018425;28;20041;-75
2022/07/09 11:08:07;;;;;;;4.38;1.50;;;;;;;;;;5018052;28;20041;-75
2022/07/09 11:10:35;;;;;;;5.43;1.10;;;;;;;;;;5018169;28;20110;-75
2022/07/09 11:13:01;;;;;;;1.55;1.17;;;;;;;;;;5032247;28;20041;-75
2022/07/09 11:15:29;;;;;;;5.07;1.50;;;;;;;;;;5037838;28;20088;-75
2022/07/09 11:17:59;;;;;;;5.80;1.40;;;;;;;;;;5037416;28;20056;-76
2022/07/09 11:20:25;;;;;;;2.58;2.22;;;;;;;;;;5037916;28;20033;-75
2022/07/09 11:22:52;;;;;;;3.88;1.15;;;;;;;;;;5031826;28;20500;-75
2022/07/09 11:25:18;;;;;;;4.65;1.15;;;;;;;;;;5019408;28;20041;-75
2022/07/09 11:27:45;;;;;;;5.10;1.08;;;;;;;;;;5028627;28;20053;-75
2022/07/09 11:30:14;;;;;;;6.22;1.30;;;;;;;;;;5018798;28;20033;-75
2022/07/09 11:32:44;;;;;;;3.30;1.53;;;;;;;;;;5018565;28;20044;-75
2022/07/09 11:35:11;;;;;;;6.63;2.75;;;;;;;;;;5015378;28;20049;-76
2022/07/09 11:37:38;;;;;;;2.47;1.25;;;;;;;;;;5027858;28;20048;-75
2022/07/09 11:40:04;;;;;;;2.05;1.20;;;;;;;;;;5030156;28;20065;-75
2022/07/09 11:42:30;;;;;;;2.00;1.15;;;;;;;;;;5016762;28;20411;-75
2022/07/09 11:44:59;;;;;;;2.10;1.10;;;;;;;;;;5032806;28;20075;-75
2022/07/09 11:47:38;;;;;;;5.03;1.58;;;;;;;;;;5030055;28;20042;-75
2022/07/09 11:50:06;;;;;;;3.85;1.23;;;;;;;;;;5016103;28;20206;-75
2022/07/09 11:52:33;;;;;;;3.03;1.40;;;;;;;;;;5016848;28;20034;-75
2022/07/09 11:54:59;;;;;;;3.40;1.38;;;;;;;;;;5016835;28;20046;-75
2022/07/09 11:57:25;;;;;;;2.38;1.40;;;;;;;;;;5016523;28;20041;-75
2022/07/09 11:59:52;;;;;;;2.72;1.50;;;;;;;;;;5023452;28;20049;-75
2022/07/09 12:02:24;;;;;;;1.95;1.30;;;;;;;;;;5035740;28;20029;-75
2022/07/09 12:04:50;;;;;;;3.28;1.20;;;;;;;;;;5035562;28;20088;-75
2022/07/09 12:07:16;;;;;;;4.88;1.50;;;;;;;;;;5036010;28;20048;-75
2022/07/09 12:09:43;;;;;;;4.70;1.30;;;;;;;;;;5036329;28;20586;-75
2022/07/09 12:12:09;;;;;;;3.78;1.50;;;;;;;;;;5036499;28;20117;-75
2022/07/09 12:14:35;;;;;;;5.00;1.20;;;;;;;;;;5035466;28;20510;-75
2022/07/09 12:17:01;;;;;;;2.97;0.93;;;;;;;;;;5035326;28;20038;-75
2022/07/09 12:19:27;;;;;;;1.52;1.17;;;;;;;;;;5034399;28;20057;-76
2022/07/09 12:21:53;;;;;;;2.50;1.50;;;;;;;;;;5036215;28;20064;-77
2022/07/09 12:24:20;;;;;;;5.05;1.33;;;;;;;;;;5020333;28;20138;-77
2022/07/09 12:26:46;;;;;;;5.00;1.20;;;;;;;;;;5019901;28;20468;-77
2022/07/09 12:29:12;;;;;;;1.85;1.27;;;;;;;;;;5032246;28;20041;-76
2022/07/09 12:31:38;;;;;;;1.67;1.15;;;;;;;;;;5035322;28;20041;-76
2022/07/09 12:34:05;;;;;;;2.85;1.20;;;;;;;;;;5035855;28;20049;-76
2022/07/09 12:36:32;;;;;;;1.83;1.20;;;;;;;;;;5035518;28;20048;-76
2022/07/09 12:38:58;;;;;;;3.20;1.25;;;;;;;;;;5034072;28;20120;-77
2022/07/09 12:41:24;;;;;;;2.00;1.00;;;;;;;;;;5035983;28;20041;-77
2022/07/09 12:43:50;;;;;;;2.45;1.13;;;;;;;;;;5018690;28;20496;-77
2022/07/09 12:46:16;;;;;;;2.05;0.90;;;;;;;;;;5017308;28;20037;-76
2022/07/09 12:48:43;;;;;;;3.75;1.23;;;;;;;;;;5015184;28;20045;-76
2022/07/09 12:51:09;;;;;;;6.18;1.02;;;;;;;;;;5015756;28;20053;-77
2022/07/09 12:53:35;;;;;;;2.83;1.30;;;;;;;;;;5015719;28;20041;-77
2022/07/09 12:56:01;;;;;;;1.80;1.10;;;;;;;;;;5015091;28;20500;-76
2022/07/09 12:58:27;;;;;;;1.20;1.05;;;;;;;;;;5015013;28;20068;-77
2022/07/09 13:00:53;;;;;;;2.22;1.20;;;;;;;;;;5018949;28;20037;-77
2022/07/09 13:03:19;;;;;;;4.15;1.10;;;;;;;;;;5017321;28;20042;-77
2022/07/09 13:05:45;;;;;;;2.80;1.20;;;;;;;;;;5035429;28;20076;-78
2022/07/09 13:08:11;;;;;;;3.13;1.13;;;;;;;;;;5024990;28;20535;-77
2022/07/09 13:10:38;;;;;;;3.60;1.15;;;;;;;;;;5026940;28;20037;-77
2022/07/09 13:13:04;;;;;;;1.75;1.10;;;;;;;;;;5019598;28;20038;-77
2022/07/09 13:15:30;;;;;;;1.63;1.08;;;;;;;;;;5032386;28;20072;-78
2022/07/09 13:17:56;;;;;;;1.33;0.80;;;;;;;;;;5034724;28;20056;-77
2022/07/09 13:20:22;;;;;;;2.03;1.13;;;;;;;;;;5035261;28;20037;-77
2022/07/09 13:22:48;;;;;;;2.60;1.20;;;;;;;;;;5034900;28;20076;-77
2022/07/09 13:25:15;;;;;;;2.33;1.10;;;;;;;;;;5032733;28;20037;-77
2022/07/09 13:27:41;;;;;;;3.45;1.30;;;;;;;;;;5034905;28;20053;-78
2022/07/09 13:30:07;;;;;;;2.15;1.25;;;;;;;;;;5034992;28;20044;-77
2022/07/09 13:32:33;;;;;;;1.35;1.02;;;;;;;;;;5028948;28;20079;-78
2022/07/09 13:34:59;;;;;;;2.65;0.90;;;;;;;;;;5032921;28;20076;-78
2022/07/09 13:37:25;;;;;;;4.40;1.00;;;;;;;;;;5033011;28;20041;-77
2022/07/09 13:39:53;;;;;;;3.63;1.25;;;;;;;;;;5034141;28;20057;-77
2022/07/09 13:42:19;;;;;;;3.30;1.50;;;;;;;;;;5034823;28;20075;-77
2022/07/09 13:44:45;;;;;;;2.35;1.13;;;;;;;;;;5034514;28;20084;-77
2022/07/09 13:47:11;;;;;;;2.17;1.10;;;;;;;;;;5033434;28;20037;-77
2022/07/09 13:49:37;;;;;;;1.85;1.05;;;;;;;;;;5034508;28;20526;-78
2022/07/09 13:52:05;;;;;;;1.75;0.90;;;;;;;;;;5033063;28;20041;-78
2022/07/09 13:54:31;;;;;;;1.20;0.80;;;;;;;;;;5035144;28;20049;-77
2022/07/09 13:56:57;;;;;;;1.90;1.02;;;;;;;;;;5033202;28;20038;-77
2022/07/09 13:59:23;;;;;;;3.75;0.98;;;;;;;;;;5028155;28;20065;-79
2022/07/09 14:01:49;;;;;;;2.17;1.20;;;;;;;;;;5027879;28;20044;-78
2022/07/09 14:04:16;;;;;;;4.38;1.20;;;;;;;;;;5033683;28;20518;-77
2022/07/09 14:06:42;;;;;;;3.53;1.40;;;;;;;;;;5034973;28;20067;-78
2022/07/09 14:09:08;;;;;;;1.95;1.40;;;;;;;;;;5039327;28;20053;-77
2022/07/09 14:11:34;;;;;;;4.35;1.13;;;;;;;;;;5034635;28;20068;-77
2022/07/09 14:14:00;;;;;;;2.58;1.10;;;;;;;;;;5051019;28;20049;-77
2022/07/09 14:16:27;;;;;;;2.65;1.10;;;;;;;;;;5016409;28;20045;-77
2022/07/09 14:18:54;;;;;;;1.30;1.10;;;;;;;;;;5017140;28;20050;-77
2022/07/09 14:21:20;;;;;;;2.92;1.23;;;;;;;;;;5013729;28;20045;-77
2022/07/09 14:23:48;;;;;;;1.20;1.10;;;;;;;;;;5021583;28;20124;-77
2022/07/09 14:26:17;;;;;;;1.75;1.13;;;;;;;;;;5033217;28;20037;-77
2022/07/09 14:28:43;;;;;;;2.47;1.05;;;;;;;;;;5033391;28;20073;-77
2022/07/09 14:31:09;;;;;;;1.13;0.93;;;;;;;;;;5033445;28;20037;-77
2022/07/09 14:33:35;;;;;;;1.60;1.17;;;;;;;;;;5033864;28;20472;-77
2022/07/09 14:36:02;;;;;;;3.17;1.20;;;;;;;;;;5045555;28;20041;-77
2022/07/09 14:38:28;;;;;;;2.30;1.08;;;;;;;;;;5053945;28;20040;-77